Saturday, May 14, 2016

For those of you keeping track at home...

Here's a breakdown of corrected time allowed for the boats...


PHRF-NW Rating PHRF Time Allowed Overall PHRF Time Allowed by Class
sec/nm hh:mm:ss hh:mm:ss
Kinetic V TP-52 -84 0:00:00 0:00:00
Rage Wylie 70 -63 1:07:32 1:07:33
Anam Cara J-122 42 6:45:16 0:00:00
Panama Red Mumm 36 51 7:14:12 0:28:57
Time Bandit J-120 54 7:23:52 0:38:36
Hana Mari Wylie 43 66 8:02:28 1:17:12
Night Runner Perry 42 78 8:41:04 1:55:48
Abstract J-105 93 9:29:20 2:44:03
Free Bowl of Soup J-105 93 9:29:20 2:44:03
Turnagain Beneteau Oceanis 50 99 9:48:36 0:00:00
Passepartout Stevens 47 114 10:36:52 0:48:15
Thirsty C&C 35-3 132 11:34:48 1:46:09
Canard Jeanneau 36i 132 11:34:48 1:46:09
Blue Martini Valiant 50 135 11:44:24 1:55:48
Rain Drop Cascade 36 138 11:54:04 2:05:27
Cool Change C&C 38 LF 144 12:13:24 2:24:45
Cantata Ericson 38 147 12:23:00 2:34:24
Aja Ericson 35-2 150 12:32:40 2:44:03
Blade Runner Santa Cruz 27 156 12:52:00 3:03:21
Wy'East Cascade 36 153 12:42:20 0:00:00
Bum's Rush Cascade 36 177 13:59:32 1:17:12
Makai Ericson 32-2 207 15:36:00 2:53:42
Lady Eileen Baba 30 249 17:51:08 5:08:48

No comments: